createdAt,value
2022-10-20T00:03:50.117Z,101580.81
2022-10-20T00:08:54.097Z,101269.19
2022-10-20T00:13:58.363Z,101564.66
2022-10-20T00:19:02.632Z,101556.94
2022-10-20T00:24:05.636Z,101548.84
2022-10-20T00:29:08.522Z,101535.09
2022-10-20T00:34:12.909Z,101523.50
2022-10-20T00:39:16.882Z,101425.28
2022-10-20T00:44:52.993Z,101498.72
2022-10-20T00:50:01.534Z,101306.38
2022-10-20T00:55:04.683Z,101499.81
2022-10-20T01:00:08.941Z,101499.34
2022-10-20T01:05:13.926Z,101180.34
2022-10-20T01:10:18.901Z,101492.97
2022-10-20T01:15:31.748Z,101353.13
2022-10-20T01:20:53.511Z,101458.94
2022-10-20T01:26:12.822Z,101420.44
2022-10-20T01:31:23.799Z,101378.88
2022-10-20T01:36:33.373Z,101452.25
2022-10-20T01:41:44.493Z,101440.38
2022-10-20T01:46:49.611Z,101380.47
2022-10-20T01:51:52.645Z,101385.41
2022-10-20T01:57:11.326Z,101130.59
2022-10-20T02:02:32.297Z,101034.53
2022-10-20T02:07:35.797Z,101401.00
2022-10-20T02:12:42.946Z,101262.47
2022-10-20T02:17:50.210Z,101369.38
2022-10-20T02:22:53.621Z,101359.50
2022-10-20T02:28:03.293Z,101211.84
2022-10-20T02:33:08.339Z,101258.47
2022-10-20T02:38:11.077Z,101361.19
2022-10-20T02:43:13.875Z,101352.56
2022-10-20T02:48:20.623Z,101000.81
2022-10-20T02:53:23.394Z,101252.78
2022-10-20T02:58:29.606Z,101285.38
2022-10-20T03:03:33.708Z,101094.69
2022-10-20T03:08:36.672Z,101330.25
2022-10-20T03:13:53.565Z,101316.69
2022-10-20T03:19:11.656Z,100944.13
2022-10-20T03:24:14.839Z,100989.75
2022-10-20T03:29:17.848Z,101307.56
2022-10-20T03:34:22.172Z,101313.81
2022-10-20T03:39:25.023Z,101250.69
2022-10-20T03:44:27.920Z,101231.66
2022-10-20T03:49:33.858Z,101288.38
2022-10-20T03:54:40.782Z,101292.03
2022-10-20T03:59:43.455Z,101272.97
2022-10-20T04:04:47.417Z,101259.00
2022-10-20T04:09:50.070Z,101175.34
2022-10-20T04:14:52.853Z,101247.66
2022-10-20T04:19:57.989Z,100969.06
2022-10-20T04:25:00.636Z,100899.03
2022-10-20T04:30:11.954Z,101234.28
2022-10-20T04:35:16.227Z,101236.50
2022-10-20T04:40:19.037Z,101151.16
2022-10-20T04:45:21.669Z,101216.31
2022-10-20T04:50:25.765Z,101135.91
2022-10-20T04:55:42.503Z,101116.13
2022-10-20T05:00:45.178Z,101057.53
2022-10-20T05:05:49.419Z,100934.41
2022-10-20T05:10:52.126Z,101152.53
2022-10-20T05:15:56.496Z,101153.03
2022-10-20T05:21:09.309Z,101157.94
2022-10-20T05:26:15.637Z,101059.19
2022-10-20T05:31:21.101Z,101024.03
2022-10-20T05:36:26.889Z,101139.09
2022-10-20T05:41:33.516Z,101093.59
2022-10-20T05:46:41.418Z,100948.38
2022-10-20T05:51:48.713Z,100853.28
2022-10-20T05:56:51.993Z,100644.63
2022-10-20T06:01:54.676Z,101092.72
2022-10-20T06:06:59.342Z,101017.78
2022-10-20T06:12:02.104Z,101050.81
2022-10-20T06:17:04.744Z,100837.00
2022-10-20T06:22:09.014Z,101022.91
2022-10-20T06:27:12.937Z,101097.28
2022-10-20T06:32:18.075Z,100887.09
2022-10-20T06:37:22.195Z,101007.44
2022-10-20T06:42:24.862Z,100901.53
2022-10-20T06:47:32.843Z,101082.09
2022-10-20T06:52:55.191Z,100947.44
2022-10-20T06:58:11.238Z,100929.91
2022-10-20T07:03:16.263Z,100899.44
2022-10-20T07:08:20.189Z,101119.28
2022-10-20T07:13:28.251Z,101086.63
2022-10-20T07:18:31.685Z,101136.47
2022-10-20T07:23:37.021Z,101119.25
2022-10-20T07:28:42.223Z,101114.41
2022-10-20T07:33:47.672Z,101037.13
2022-10-20T07:39:04.399Z,101118.38
2022-10-20T07:44:10.054Z,101019.31
2022-10-20T07:54:37.149Z,101102.78
2022-10-20T07:59:39.768Z,101110.81
2022-10-20T08:04:44.024Z,101078.72
2022-10-20T08:09:48.070Z,101090.16
2022-10-20T08:14:53.197Z,101102.56
2022-10-20T08:20:04.412Z,101042.06
2022-10-20T08:25:13.545Z,101098.06
2022-10-20T08:30:23.770Z,101079.25
2022-10-20T08:35:26.972Z,101089.94
2022-10-20T08:40:31.864Z,101082.50
2022-10-20T08:45:38.387Z,101061.69
2022-10-20T08:50:45.486Z,100997.84
2022-10-20T08:55:51.014Z,101054.78
2022-10-20T09:00:58.061Z,100680.50
2022-10-20T09:06:08.090Z,100983.63
2022-10-20T09:11:18.218Z,101036.94
2022-10-20T09:16:40.761Z,101043.13
2022-10-20T09:21:46.834Z,101063.84
2022-10-20T09:26:58.792Z,101063.72
2022-10-20T09:32:16.659Z,100998.19
2022-10-20T09:37:28.503Z,100834.19
2022-10-20T09:42:38.241Z,100834.56
2022-10-20T09:47:45.295Z,100804.34
2022-10-20T09:52:50.993Z,100891.25
2022-10-20T09:57:57.655Z,100799.53
2022-10-20T10:03:14.410Z,100829.06
2022-10-20T10:08:18.942Z,101023.19
2022-10-20T10:13:26.721Z,101028.88
2022-10-20T10:18:30.102Z,100646.06
2022-10-20T10:23:36.531Z,101077.19
2022-10-20T10:28:42.103Z,101036.25
2022-10-20T10:33:44.911Z,100973.06
2022-10-20T10:38:47.694Z,101051.25
2022-10-20T10:44:01.008Z,100848.50
2022-10-20T10:49:19.578Z,100987.09
2022-10-20T10:54:46.290Z,100928.16
2022-10-20T10:59:53.390Z,101046.06
2022-10-20T11:05:17.828Z,101034.28
2022-10-20T11:10:29.231Z,101016.25
2022-10-20T11:15:46.334Z,101007.88
2022-10-20T11:20:57.501Z,100961.41
2022-10-20T11:26:10.896Z,101002.56
2022-10-20T11:31:23.801Z,100962.63
2022-10-20T11:36:33.655Z,100941.81
2022-10-20T11:41:44.414Z,101004.88
2022-10-20T11:46:52.731Z,101007.19
2022-10-20T11:52:42.987Z,101007.19
2022-10-20T11:58:01.227Z,100943.38
2022-10-20T12:03:28.729Z,100953.88
2022-10-20T12:08:54.509Z,101022.41
2022-10-20T12:14:04.549Z,101008.38
2022-10-20T12:19:17.803Z,100999.16
2022-10-20T12:24:36.180Z,100953.09
2022-10-20T12:30:03.183Z,100987.41
2022-10-20T12:35:53.045Z,100963.31
2022-10-20T12:40:59.421Z,100849.25
2022-10-20T12:46:09.060Z,100937.94
2022-10-20T12:51:24.363Z,100724.50
2022-10-20T12:56:32.869Z,100887.72
2022-10-20T13:02:30.830Z,100889.91
2022-10-20T13:08:10.816Z,100921.13
2022-10-20T13:13:46.193Z,100924.63
2022-10-20T13:18:54.322Z,100942.53
2022-10-20T13:24:13.447Z,100938.41
2022-10-20T13:29:23.232Z,100889.25
2022-10-20T13:34:33.670Z,100914.56
2022-10-20T13:39:46.941Z,100897.22
2022-10-20T13:45:02.115Z,100748.28
2022-10-20T13:50:12.320Z,100848.78
2022-10-20T13:55:21.640Z,100859.97
2022-10-20T14:00:28.209Z,100903.56
2022-10-20T14:05:40.326Z,100899.38
2022-10-20T14:10:49.105Z,100857.91
2022-10-20T14:15:54.667Z,100868.94
2022-10-20T14:21:02.642Z,100821.72
2022-10-20T14:26:08.292Z,100697.09
2022-10-20T14:31:15.396Z,100881.56
2022-10-20T14:36:23.037Z,100863.06
2022-10-20T14:41:28.125Z,100787.78
2022-10-20T14:46:34.639Z,100882.22
2022-10-20T14:51:44.917Z,100863.69
2022-10-20T14:56:50.068Z,100768.09
2022-10-20T15:02:01.417Z,100674.72
2022-10-20T15:07:14.481Z,100713.28
2022-10-20T15:12:20.639Z,100805.66
2022-10-20T15:17:37.970Z,100842.22
2022-10-20T15:22:43.280Z,100857.63
2022-10-20T15:27:46.009Z,100817.16
2022-10-20T15:32:49.291Z,100844.69
2022-10-20T15:37:56.302Z,100827.06
2022-10-20T15:43:02.184Z,100579.13
2022-10-20T15:48:05.706Z,100700.81
2022-10-20T15:53:11.894Z,100822.88
2022-10-20T15:58:14.924Z,100828.94
2022-10-20T16:03:19.013Z,100822.16
2022-10-20T16:08:23.176Z,100809.53
2022-10-20T16:13:26.069Z,100752.97
2022-10-20T16:18:29.397Z,100821.97
2022-10-20T16:23:39.470Z,100782.13
2022-10-20T16:28:45.575Z,100733.69
2022-10-20T16:33:48.740Z,100743.41
2022-10-20T16:38:57.461Z,100623.16
2022-10-20T16:44:01.183Z,100766.03
2022-10-20T16:49:04.508Z,100803.41
2022-10-20T16:54:08.990Z,100793.38
2022-10-20T16:59:11.952Z,100815.78
2022-10-20T17:04:14.732Z,100797.72
2022-10-20T17:09:18.868Z,100810.13
2022-10-20T17:14:21.693Z,100813.88
2022-10-20T17:19:24.525Z,100786.13
2022-10-20T17:24:28.714Z,100807.13
2022-10-20T17:29:31.609Z,100806.53
2022-10-20T17:34:34.519Z,100807.13
2022-10-20T17:39:41.268Z,100674.41
2022-10-20T17:44:43.987Z,100805.13
2022-10-20T17:49:48.381Z,100786.50
2022-10-20T17:54:54.859Z,100802.56
2022-10-20T18:00:02.823Z,100580.22
2022-10-20T18:05:09.198Z,100790.19
2022-10-20T18:10:13.659Z,100766.88
2022-10-20T18:15:16.777Z,100792.63
2022-10-20T18:20:19.592Z,100776.34
2022-10-20T18:25:23.806Z,100801.31
2022-10-20T18:30:26.544Z,100783.16
2022-10-20T18:35:29.188Z,100716.84
2022-10-20T18:40:35.058Z,100776.75
2022-10-20T18:45:37.727Z,100765.94
2022-10-20T18:50:43.809Z,100691.84
2022-10-20T18:55:48.302Z,100757.84
2022-10-20T19:00:57.711Z,100738.31
2022-10-20T19:06:04.658Z,100732.97
2022-10-20T19:11:16.582Z,100755.47
2022-10-20T19:16:25.200Z,100745.09
2022-10-20T19:21:29.557Z,100664.94
2022-10-20T19:26:35.178Z,100344.94
2022-10-20T19:31:41.160Z,100591.28
2022-10-20T19:36:47.595Z,100552.75
2022-10-20T19:41:55.362Z,100594.28
2022-10-20T19:47:03.358Z,100561.53
2022-10-20T19:52:09.547Z,100639.34
2022-10-20T19:57:15.047Z,100627.69
2022-10-20T20:03:25.809Z,100291.28
2022-10-20T20:08:29.715Z,100694.75
2022-10-20T20:13:35.040Z,100533.97
2022-10-20T20:18:40.398Z,100355.53
2022-10-20T20:24:00.111Z,100655.56
2022-10-20T20:29:05.548Z,100650.81
2022-10-20T20:34:08.200Z,100650.06
2022-10-20T20:39:11.075Z,100645.75
2022-10-20T20:44:15.329Z,100687.91
2022-10-20T20:55:04.262Z,100408.34
2022-10-20T21:00:13.107Z,100282.81
2022-10-20T21:05:18.465Z,100580.09
2022-10-20T21:10:34.843Z,100550.34
2022-10-20T21:15:49.563Z,100539.63
2022-10-20T21:21:07.628Z,100502.09
2022-10-20T21:26:21.268Z,100491.94
2022-10-20T21:31:35.960Z,100251.00
2022-10-20T21:36:49.308Z,100576.56
2022-10-20T21:47:18.998Z,100373.88
2022-10-20T21:52:23.436Z,100681.34
2022-10-20T21:57:34.009Z,100569.97
2022-10-20T22:02:39.838Z,100595.53
2022-10-20T22:07:44.240Z,100428.75
2022-10-20T22:12:47.181Z,100660.06
2022-10-20T22:17:51.575Z,100514.38
2022-10-20T22:22:54.395Z,100649.63
2022-10-20T22:27:58.481Z,100649.03
2022-10-20T22:33:03.044Z,100655.00
2022-10-20T22:38:05.854Z,100596.78
2022-10-20T22:43:08.758Z,100653.31
2022-10-20T22:48:13.824Z,100658.34
2022-10-20T22:53:16.784Z,100684.78
2022-10-20T22:58:22.584Z,100386.34
2022-10-20T23:03:27.161Z,100664.63
2022-10-20T23:08:32.673Z,100658.13
2022-10-20T23:13:36.434Z,100518.13
2022-10-20T23:18:41.309Z,100403.00
2022-10-20T23:23:44.307Z,100514.19
2022-10-20T23:28:48.713Z,100640.84
2022-10-20T23:33:56.404Z,100612.84
2022-10-20T23:38:59.636Z,100377.47
2022-10-20T23:44:02.662Z,100491.63
2022-10-20T23:49:07.312Z,100566.19
2022-10-20T23:54:10.209Z,100388.16
2022-10-20T23:59:13.024Z,100348.72
